Time;durP1;ratioP1;P1;durP2;ratioP2;P2;SDS_P1;SDS_P2;PMS_P1;PMS_P2;Temp;Humidity;BMP_temperature;BMP_pressure;BME280_temperature;BME280_humidity;BME280_pressure;Samples;Min_cycle;Max_cycle;Signal;HPM_P1;HPM_P2
2022/07/13 20:56:20;;;;;;;;;16.50;16.50;;;;;;;;5199110;28;8811;-75
2022/07/13 20:59:12;;;;;;;;;15.50;15.50;;;;;;;;5212565;28;9173;-77
2022/07/13 21:01:43;;;;;;;;;14.25;14.25;;;;;;;;5231518;28;8795;-74
2022/07/13 21:04:14;;;;;;;;;15.50;15.50;;;;;;;;5215575;28;8795;-79
2022/07/13 21:06:47;;;;;;;;;14.25;14.25;;;;;;;;5230184;28;8948;-80
2022/07/13 21:09:18;;;;;;;;;19.50;19.50;;;;;;;;5194111;28;8791;-78
2022/07/13 21:11:49;;;;;;;;;18.00;18.00;;;;;;;;5211733;28;8794;-77
2022/07/13 21:14:20;;;;;;;;;15.75;15.75;;;;;;;;5206823;28;9557;-77
2022/07/13 21:16:51;;;;;;;;;16.75;16.75;;;;;;;;5224615;28;8833;-77
2022/07/13 21:19:22;;;;;;;;;15.00;15.00;;;;;;;;5223358;28;8810;-77
2022/07/13 21:21:53;;;;;;;;;16.75;16.75;;;;;;;;5226101;28;10183;-77
2022/07/13 21:24:24;;;;;;;;;16.50;16.50;;;;;;;;5207860;28;8771;-77
2022/07/13 21:26:55;;;;;;;;;13.50;13.50;;;;;;;;5223726;28;8783;-77
2022/07/13 21:29:27;;;;;;;;;17.50;17.50;;;;;;;;5223913;28;8823;-77
2022/07/13 21:31:58;;;;;;;;;21.75;21.75;;;;;;;;5224163;28;9505;-78
2022/07/13 21:34:28;;;;;;;;;16.00;16.00;;;;;;;;5225595;28;8775;-77
2022/07/13 21:36:59;;;;;;;;;15.50;15.50;;;;;;;;5207461;28;8790;-77
2022/07/13 21:39:30;;;;;;;;;16.25;16.25;;;;;;;;5207038;28;8806;-77
2022/07/13 21:42:01;;;;;;;;;19.50;19.50;;;;;;;;5207829;28;8775;-77
2022/07/13 21:44:32;;;;;;;;;12.00;12.00;;;;;;;;5207560;28;8785;-78
2022/07/13 21:47:03;;;;;;;;;18.00;18.00;;;;;;;;5223922;28;8790;-77
2022/07/13 21:49:34;;;;;;;;;18.00;18.00;;;;;;;;5191734;28;8787;-78
2022/07/13 21:52:05;;;;;;;;;17.75;17.75;;;;;;;;5194858;28;8818;-78
2022/07/13 21:54:36;;;;;;;;;11.00;11.00;;;;;;;;5210238;28;8840;-77
2022/07/13 21:57:07;;;;;;;;;15.00;15.00;;;;;;;;5210314;28;11114;-83
2022/07/13 21:59:39;;;;;;;;;16.25;16.25;;;;;;;;5212339;28;8882;-82
2022/07/13 22:02:10;;;;;;;;;18.00;18.00;;;;;;;;5229571;28;8764;-82
2022/07/13 22:04:43;;;;;;;;;19.00;19.00;;;;;;;;5179148;28;8798;-81
2022/07/13 22:07:23;;;;;;;;;19.50;19.50;;;;;;;;5194625;28;8791;-81
2022/07/13 22:10:32;;;;;;;;;17.25;17.25;;;;;;;;5210962;28;8868;-81
2022/07/13 22:13:22;;;;;;;;;17.25;17.25;;;;;;;;5227809;28;8782;-84
2022/07/13 22:16:12;;;;;;;;;16.00;16.00;;;;;;;;5211073;28;8815;-85
2022/07/13 22:19:03;;;;;;;;;15.25;14.50;;;;;;;;5179238;28;8856;-86
2022/07/13 22:21:53;;;;;;;;;21.00;21.00;;;;;;;;5178718;28;8825;-85
2022/07/13 22:24:42;;;;;;;;;23.75;23.75;;;;;;;;5210807;28;9494;-84
2022/07/13 22:27:32;;;;;;;;;23.25;23.25;;;;;;;;5177897;28;8798;-85
2022/07/13 22:30:22;;;;;;;;;22.50;22.50;;;;;;;;5227266;28;9533;-85
2022/07/13 22:33:12;;;;;;;;;20.75;20.50;;;;;;;;5210514;28;8802;-84
2022/07/13 22:36:02;;;;;;;;;21.50;21.25;;;;;;;;5210576;28;8905;-83
2022/07/13 22:39:10;;;;;;;;;19.00;19.00;;;;;;;;5228720;28;8779;-83
2022/07/13 22:42:00;;;;;;;;;17.25;17.25;;;;;;;;5210915;28;8822;-83
2022/07/13 22:45:07;;;;;;;;;19.00;19.00;;;;;;;;5228369;28;9544;-80
2022/07/13 22:47:57;;;;;;;;;19.50;19.00;;;;;;;;5227409;28;8779;-81
2022/07/13 22:51:05;;;;;;;;;19.75;19.75;;;;;;;;5227892;28;8952;-84
2022/07/13 22:54:13;;;;;;;;;17.00;17.00;;;;;;;;5210093;28;8819;-82
2022/07/13 22:57:03;;;;;;;;;19.75;19.75;;;;;;;;5245713;28;8957;-82
2022/07/13 22:59:53;;;;;;;;;21.00;21.00;;;;;;;;5204399;28;8791;-83
2022/07/13 23:02:44;;;;;;;;;20.00;20.00;;;;;;;;5187427;28;8809;-84
2022/07/13 23:05:34;;;;;;;;;17.50;17.25;;;;;;;;5178083;28;8860;-83
2022/07/13 23:08:42;;;;;;;;;20.50;20.50;;;;;;;;5195236;28;8829;-81
2022/07/13 23:11:32;;;;;;;;;12.00;12.00;;;;;;;;5210188;28;8791;-82
2022/07/13 23:14:40;;;;;;;;;18.50;18.50;;;;;;;;5227122;28;8811;-82
2022/07/13 23:17:30;;;;;;;;;24.50;24.50;;;;;;;;5211044;28;8796;-82
2022/07/13 23:20:20;;;;;;;;;25.50;25.50;;;;;;;;5211914;28;8775;-81
2022/07/13 23:23:10;;;;;;;;;25.25;24.50;;;;;;;;5195390;28;8794;-81
2022/07/13 23:26:02;;;;;;;;;27.25;27.25;;;;;;;;5207347;28;8802;-83
2022/07/13 23:28:52;;;;;;;;;28.75;28.75;;;;;;;;5249726;28;8832;-82
2022/07/13 23:31:43;;;;;;;;;27.00;27.00;;;;;;;;5251631;28;8802;-81
2022/07/13 23:34:14;;;;;;;;;29.00;29.00;;;;;;;;5216539;28;11413;-83
2022/07/13 23:36:46;;;;;;;;;25.25;25.25;;;;;;;;5209920;28;9541;-81
2022/07/13 23:39:18;;;;;;;;;22.50;22.50;;;;;;;;5227418;28;8879;-82
2022/07/13 23:41:49;;;;;;;;;26.75;26.75;;;;;;;;5176587;28;8807;-83
2022/07/13 23:44:20;;;;;;;;;23.50;23.50;;;;;;;;5210127;28;8810;-84
2022/07/13 23:46:52;;;;;;;;;27.75;27.75;;;;;;;;5209528;28;9536;-87
2022/07/13 23:49:23;;;;;;;;;25.50;25.50;;;;;;;;5209542;28;8937;-86
2022/07/13 23:52:12;;;;;;;;;46.80;38.40;;;;;;;;5210658;28;8833;-86
2022/07/13 23:54:43;;;;;;;;;46.20;39.20;;;;;;;;5193004;28;8852;-82
2022/07/13 23:57:15;;;;;;;;;55.00;45.80;;;;;;;;5225879;28;8852;-83
2022/07/13 23:59:46;;;;;;;;;49.60;42.00;;;;;;;;5208974;28;8803;-78
